Hlavní strana
METAR-TAF:

METAR-TAF

Letiště :

Limón, Kostarika

zeměpisná šířka: 10-00N, zeměpisná délka: 083-03W, výška: 5 m

Aktuální stav počasí

Zpráva byla vytvořena před 9 hodinami a 31 minutami, v 00:00 UTC
Západoseverozápadní vítr 2 kt
Teplota 26°C
Vlhkost vzduchu 89%
Tlak 1008 hPa
Viditelnost 10 km a více
Skoro jasno ve výšce 2000 ft
Oblačno až skoro zataženo ve výšce 13000 ft

METAR: MRLM 170000Z 29002KT 9999 FEW020 BKN130 26/24 A2978

Čas: 03:31 (09:31 UTC)

Předpověď počasí

Zpráva byla vytvořena před 4 hodinami a 31 minutami, v 05:00 UTC
Předpověď platná od 17 v 06 UTC do 18 v 06 UTC
Západojihozápadní vítr 4 kt
Viditelnost 10 km a více
Polojasno ve výšce 2000 ft
Oblačno až skoro zataženo ve výšce 12000 ft
Dočasný
od 17 v 06 UTC do 17 v 12 UTC
Oblačno až skoro zataženo ve výšce 2000 ft
mrholení
Dočasný
od 17 v 14 UTC do 17 v 20 UTC
Východoseverovýchodní vítr 6 kt

TAF: MRLM 170500Z 1706/1806 24004KT 9999 SCT020 BKN120 TX30/1718Z TN22/1712Z TEMPO 1706/1712 DZ BKN020 TEMPO 1714/1720 07006KT

Stav a předpovědi počasí z více než 4 000 letišť (zprávy METAR a TAF).

Červené a žluté tečky na mapě představují dostupné meteorologické stanice.

Když kurzor umístíte na tečku, zobrazí se název stanice.

Pak kliknutím zobrazíte stav a předpověď počasí.

Chcete-li změnit mapu, kliknutím na zelené tlačítko se znaménkem +mapu přiblížíte, kliknutím na zelené tlačítko se znaménkem – mapu oddálíte a kliknutím na zelené šipky přejdete na sousední mapy.


METAR-TAF: